createdAt,value
2023-03-03T00:00:43.312Z,144.90
2023-03-03T00:03:18.934Z,99.45
2023-03-03T00:05:52.737Z,93.90
2023-03-03T00:08:26.841Z,110.75
2023-03-03T00:11:00.970Z,86.70
2023-03-03T00:13:38.088Z,89.30
2023-03-03T00:16:17.384Z,82.35
2023-03-03T00:18:51.591Z,92.72
2023-03-03T00:21:29.463Z,103.82
2023-03-03T00:24:18.215Z,100.20
2023-03-03T00:26:55.513Z,109.68
2023-03-03T00:29:32.644Z,94.60
2023-03-03T00:32:26.241Z,96.80
2023-03-03T00:35:22.413Z,97.25
2023-03-03T00:37:58.111Z,97.93
2023-03-03T00:40:36.792Z,91.53
2023-03-03T00:43:19.595Z,94.60
2023-03-03T00:45:54.607Z,92.47
2023-03-03T00:48:30.995Z,92.63
2023-03-03T00:51:20.343Z,95.03
2023-03-03T00:53:53.967Z,104.18
2023-03-03T00:56:27.954Z,100.80
2023-03-03T00:59:01.670Z,106.60
2023-03-03T01:01:36.185Z,98.65
2023-03-03T01:04:11.128Z,123.80
2023-03-03T01:06:44.588Z,85.63
2023-03-03T01:09:18.043Z,105.32
2023-03-03T01:11:52.237Z,93.35
2023-03-03T01:14:25.869Z,111.45
2023-03-03T01:16:59.804Z,116.18
2023-03-03T01:19:34.886Z,101.88
2023-03-03T01:22:08.387Z,101.88
2023-03-03T01:24:41.881Z,118.40
2023-03-03T01:27:15.320Z,126.47
2023-03-03T01:29:48.815Z,120.65
2023-03-03T01:32:22.504Z,114.55
2023-03-03T01:34:57.531Z,114.43
2023-03-03T01:37:30.991Z,113.65
2023-03-03T01:40:05.654Z,111.50
2023-03-03T01:42:39.188Z,98.10
2023-03-03T01:45:17.457Z,103.82
2023-03-03T01:47:57.838Z,98.68
2023-03-03T01:50:49.955Z,88.05
2023-03-03T01:53:34.025Z,110.43
2023-03-03T01:56:09.832Z,110.22
2023-03-03T01:58:48.195Z,112.43
2023-03-03T02:01:25.810Z,105.95
2023-03-03T02:03:59.465Z,109.80
2023-03-03T02:06:38.905Z,112.95
2023-03-03T02:09:17.976Z,116.90
2023-03-03T02:11:53.900Z,141.35
2023-03-03T02:14:27.448Z,130.48
2023-03-03T02:17:01.072Z,130.15
2023-03-03T02:19:44.046Z,129.32
2023-03-03T02:22:25.008Z,110.68
2023-03-03T02:25:01.704Z,125.07
2023-03-03T02:27:38.353Z,118.65
2023-03-03T02:30:19.471Z,114.15
2023-03-03T02:32:53.015Z,128.70
2023-03-03T02:35:32.143Z,102.97
2023-03-03T02:38:15.692Z,115.93
2023-03-03T02:40:58.144Z,120.05
2023-03-03T02:43:38.268Z,124.50
2023-03-03T02:46:11.776Z,122.65
2023-03-03T02:48:45.239Z,113.53
2023-03-03T02:51:18.773Z,118.50
2023-03-03T02:53:52.239Z,113.45
2023-03-03T02:56:25.788Z,99.97
2023-03-03T02:59:00.834Z,105.63
2023-03-03T03:01:37.442Z,113.45
2023-03-03T03:04:16.833Z,116.63
2023-03-03T03:06:53.215Z,114.15
2023-03-03T03:09:28.297Z,122.88
2023-03-03T03:12:02.672Z,105.40
2023-03-03T03:14:40.654Z,102.18
2023-03-03T03:17:14.510Z,110.03
2023-03-03T03:19:49.144Z,93.45
2023-03-03T03:22:22.834Z,89.22
2023-03-03T03:24:56.870Z,94.80
2023-03-03T03:27:30.379Z,91.32
2023-03-03T03:30:06.007Z,94.65
2023-03-03T03:32:39.487Z,101.20
2023-03-03T03:35:13.608Z,98.05
2023-03-03T03:37:47.080Z,123.78
2023-03-03T03:40:20.621Z,99.18
2023-03-03T03:42:54.307Z,94.10
2023-03-03T03:45:30.036Z,92.53
2023-03-03T03:48:03.925Z,90.63
2023-03-03T03:50:38.715Z,89.50
2023-03-03T03:53:13.065Z,83.35
2023-03-03T03:55:47.061Z,102.85
2023-03-03T03:58:21.606Z,92.40
2023-03-03T04:01:05.487Z,99.78
2023-03-03T04:03:40.523Z,101.65
2023-03-03T04:06:17.755Z,96.07
2023-03-03T04:08:51.405Z,90.85
2023-03-03T04:11:27.869Z,91.93
2023-03-03T04:14:01.403Z,98.25
2023-03-03T04:16:36.388Z,109.43
2023-03-03T04:19:09.993Z,94.82
2023-03-03T04:21:44.961Z,90.93
2023-03-03T04:24:19.413Z,96.63
2023-03-03T04:26:55.406Z,87.53
2023-03-03T04:29:28.926Z,94.07
2023-03-03T04:32:04.045Z,93.50
2023-03-03T04:34:38.891Z,97.30
2023-03-03T04:37:12.783Z,86.47
2023-03-03T04:39:46.416Z,84.32
2023-03-03T04:42:19.875Z,82.93
2023-03-03T04:44:54.311Z,80.15
2023-03-03T04:47:29.397Z,87.75
2023-03-03T04:50:02.930Z,85.93
2023-03-03T04:52:38.984Z,90.22
2023-03-03T04:55:14.216Z,71.65
2023-03-03T04:57:47.802Z,83.38
2023-03-03T05:00:21.763Z,87.20
2023-03-03T05:02:56.739Z,86.95
2023-03-03T05:05:30.545Z,85.70
2023-03-03T05:08:03.967Z,90.97
2023-03-03T05:10:37.442Z,107.45
2023-03-03T05:13:10.996Z,94.93
2023-03-03T05:15:44.520Z,99.82
2023-03-03T05:18:19.707Z,85.05
2023-03-03T05:20:54.049Z,91.35
2023-03-03T05:23:27.564Z,73.43
2023-03-03T05:26:01.028Z,80.45
2023-03-03T05:28:34.676Z,89.85
2023-03-03T05:31:08.148Z,78.20
2023-03-03T05:33:42.967Z,78.03
2023-03-03T05:36:16.399Z,80.65
2023-03-03T05:38:49.852Z,82.30
2023-03-03T05:41:23.352Z,81.88
2023-03-03T05:43:56.803Z,83.35
2023-03-03T05:46:30.417Z,100.35
2023-03-03T05:49:05.298Z,88.60
2023-03-03T05:51:38.759Z,87.10
2023-03-03T05:54:12.221Z,93.45
2023-03-03T05:56:45.686Z,97.25
2023-03-03T05:59:19.190Z,82.47
2023-03-03T06:01:52.733Z,91.47
2023-03-03T06:04:27.645Z,84.43
2023-03-03T06:07:01.112Z,79.95
2023-03-03T06:09:34.681Z,81.07
2023-03-03T06:12:08.715Z,83.35
2023-03-03T06:14:42.152Z,81.80
2023-03-03T06:17:15.738Z,74.30
2023-03-03T06:19:50.568Z,85.93
2023-03-03T06:22:24.010Z,86.55
2023-03-03T06:24:57.531Z,71.20
2023-03-03T06:27:31.053Z,83.90
2023-03-03T06:30:04.821Z,84.78
2023-03-03T06:32:38.596Z,89.07
2023-03-03T06:35:13.677Z,78.40
2023-03-03T06:37:47.259Z,90.18
2023-03-03T06:40:20.856Z,86.50
2023-03-03T06:42:54.388Z,84.53
2023-03-03T06:45:27.934Z,73.30
2023-03-03T06:48:02.116Z,74.82
2023-03-03T06:50:37.003Z,86.97
2023-03-03T06:53:14.496Z,79.13
2023-03-03T06:55:48.001Z,83.65
2023-03-03T06:58:24.278Z,76.03
2023-03-03T07:01:00.307Z,78.90
2023-03-03T07:03:35.559Z,87.82
2023-03-03T07:06:23.437Z,81.72
2023-03-03T07:08:58.094Z,81.75
2023-03-03T07:11:32.861Z,85.05
2023-03-03T07:14:17.540Z,103.10
2023-03-03T07:16:57.797Z,87.63
2023-03-03T07:19:34.898Z,93.15
2023-03-03T07:22:17.300Z,98.07
2023-03-03T07:27:28.133Z,87.50
2023-03-03T07:30:18.715Z,88.25
2023-03-03T07:32:56.581Z,81.18
2023-03-03T07:35:39.794Z,72.55
2023-03-03T07:38:24.536Z,65.70
2023-03-03T07:41:01.621Z,69.53
2023-03-03T07:43:38.962Z,72.93
2023-03-03T07:46:27.931Z,61.47
2023-03-03T07:49:02.577Z,69.72
2023-03-03T07:51:42.153Z,55.03
2023-03-03T07:54:37.404Z,60.67
2023-03-03T07:57:20.223Z,45.85
2023-03-03T07:59:55.865Z,47.17
2023-03-03T08:02:40.016Z,44.20
2023-03-03T08:05:32.360Z,55.35
2023-03-03T08:08:31.257Z,58.83
2023-03-03T08:11:09.750Z,45.53
2023-03-03T08:13:45.173Z,40.42
2023-03-03T08:16:36.502Z,43.95
2023-03-03T08:19:13.278Z,41.58
2023-03-03T08:21:46.984Z,42.47
2023-03-03T08:24:20.593Z,37.47
2023-03-03T08:26:55.472Z,50.30
2023-03-03T08:29:28.907Z,46.60
2023-03-03T08:32:02.603Z,42.72
2023-03-03T08:34:36.236Z,44.42
2023-03-03T08:37:09.810Z,51.65
2023-03-03T08:39:44.230Z,40.22
2023-03-03T08:42:19.085Z,52.50
2023-03-03T08:44:52.615Z,47.45
2023-03-03T08:47:26.152Z,36.67
2023-03-03T08:49:59.596Z,44.67
2023-03-03T08:52:34.380Z,38.55
2023-03-03T08:55:08.878Z,42.92
2023-03-03T08:57:44.047Z,44.03
2023-03-03T09:00:19.742Z,38.25
2023-03-03T09:02:53.728Z,48.50
2023-03-03T09:05:28.256Z,47.50
2023-03-03T09:08:02.541Z,38.15
2023-03-03T09:10:36.267Z,39.80
2023-03-03T09:13:16.540Z,38.92
2023-03-03T09:15:50.917Z,37.70
2023-03-03T09:18:32.317Z,32.40
2023-03-03T09:21:20.293Z,73.93
2023-03-03T09:23:58.528Z,44.85
2023-03-03T09:26:47.378Z,33.13
2023-03-03T09:29:28.078Z,34.85
2023-03-03T09:32:03.572Z,34.33
2023-03-03T09:34:42.431Z,34.40
2023-03-03T09:37:23.892Z,31.15
2023-03-03T09:39:58.588Z,36.58
2023-03-03T09:43:00.701Z,38.63
2023-03-03T09:45:46.923Z,37.83
2023-03-03T09:48:38.334Z,37.05
2023-03-03T09:51:27.813Z,30.52
2023-03-03T09:54:32.840Z,29.23
2023-03-03T09:57:14.546Z,32.22
2023-03-03T10:00:06.848Z,31.13
2023-03-03T10:02:59.456Z,25.90
2023-03-03T10:05:45.828Z,31.83
2023-03-03T10:08:31.589Z,28.92
2023-03-03T10:11:14.332Z,36.80
2023-03-03T10:14:02.233Z,31.08
2023-03-03T10:16:49.892Z,29.05
2023-03-03T10:19:37.565Z,32.30
2023-03-03T10:22:24.355Z,23.20
2023-03-03T10:25:10.062Z,33.55
2023-03-03T10:28:00.117Z,25.73
2023-03-03T10:30:54.708Z,25.40
2023-03-03T10:33:44.933Z,27.85
2023-03-03T10:36:37.540Z,21.13
2023-03-03T10:39:35.888Z,20.85
2023-03-03T10:42:28.367Z,32.40
2023-03-03T10:45:30.900Z,25.45
2023-03-03T10:48:16.505Z,24.23
2023-03-03T10:50:55.412Z,28.05
2023-03-03T10:53:35.401Z,25.92
2023-03-03T10:56:35.401Z,24.25
2023-03-03T10:59:47.605Z,23.17
2023-03-03T11:02:29.354Z,27.08
2023-03-03T11:05:20.882Z,27.42
2023-03-03T11:07:59.264Z,21.73
2023-03-03T11:10:49.860Z,21.60
2023-03-03T11:13:32.692Z,17.45
2023-03-03T11:16:23.095Z,16.40
2023-03-03T11:19:23.541Z,14.60
2023-03-03T11:22:07.735Z,17.80
2023-03-03T11:24:55.931Z,17.42
2023-03-03T11:28:01.539Z,23.92
2023-03-03T11:30:53.374Z,21.35
2023-03-03T11:33:34.090Z,20.92
2023-03-03T11:36:14.921Z,19.65
2023-03-03T11:38:56.307Z,24.92
2023-03-03T11:41:36.345Z,22.70
2023-03-03T11:44:23.748Z,32.55
2023-03-03T11:47:01.821Z,23.35
2023-03-03T11:49:42.290Z,35.22
2023-03-03T11:52:25.414Z,27.17
2023-03-03T11:55:06.167Z,25.10
2023-03-03T11:57:43.472Z,23.00
2023-03-03T12:00:29.328Z,33.83
2023-03-03T12:03:18.790Z,25.73
2023-03-03T12:05:58.613Z,19.50
2023-03-03T12:09:00.747Z,21.52
2023-03-03T12:11:43.092Z,22.10
2023-03-03T12:14:39.628Z,24.23
2023-03-03T12:17:27.132Z,20.83
2023-03-03T12:20:07.207Z,24.55
2023-03-03T12:23:01.117Z,22.92
2023-03-03T12:25:43.785Z,22.13
2023-03-03T12:28:21.598Z,22.73
2023-03-03T12:31:22.903Z,29.38
2023-03-03T12:34:05.213Z,26.02
2023-03-03T12:36:56.349Z,24.05
2023-03-03T12:39:42.127Z,27.20
2023-03-03T12:42:25.363Z,25.00
2023-03-03T12:45:08.851Z,22.48
2023-03-03T12:47:47.946Z,32.30
2023-03-03T12:50:35.370Z,25.38
2023-03-03T12:53:18.743Z,21.95
2023-03-03T12:55:57.688Z,25.02
2023-03-03T12:58:45.042Z,24.83
2023-03-03T13:01:33.404Z,23.63
2023-03-03T13:04:13.228Z,24.60
2023-03-03T13:06:54.862Z,24.02
2023-03-03T13:09:40.743Z,21.15
2023-03-03T13:12:31.573Z,26.08
2023-03-03T13:15:16.364Z,30.30
2023-03-03T13:18:06.399Z,26.02
2023-03-03T13:20:48.468Z,24.63
2023-03-03T13:23:38.263Z,23.75
2023-03-03T13:26:18.342Z,27.27
2023-03-03T13:29:00.760Z,24.42
2023-03-03T13:31:38.238Z,24.27
2023-03-03T13:34:21.439Z,36.00
2023-03-03T13:37:01.590Z,26.13
2023-03-03T13:39:44.229Z,24.00
2023-03-03T13:42:24.857Z,23.02
2023-03-03T13:44:58.788Z,39.80
2023-03-03T13:47:42.115Z,25.95
2023-03-03T13:50:23.631Z,23.42
2023-03-03T13:53:18.845Z,29.75
2023-03-03T13:56:01.545Z,25.40
2023-03-03T13:58:43.743Z,30.02
2023-03-03T14:01:24.544Z,26.58
2023-03-03T14:04:07.261Z,33.35
2023-03-03T14:09:43.952Z,24.30
2023-03-03T14:12:27.148Z,28.45
2023-03-03T14:15:08.014Z,29.92
2023-03-03T14:17:53.297Z,22.60
2023-03-03T14:20:31.055Z,27.58
2023-03-03T14:23:14.559Z,32.63
2023-03-03T14:26:01.438Z,26.35
2023-03-03T14:28:41.821Z,26.85
2023-03-03T14:31:22.812Z,29.80
2023-03-03T14:34:02.370Z,31.40
2023-03-03T14:36:40.347Z,30.77
2023-03-03T14:39:33.178Z,31.80
2023-03-03T14:42:14.300Z,29.20
2023-03-03T14:44:56.656Z,33.50
2023-03-03T14:47:31.102Z,31.67
2023-03-03T14:50:33.935Z,23.98
2023-03-03T14:53:13.995Z,32.38
2023-03-03T14:55:49.615Z,29.05
2023-03-03T14:58:31.938Z,25.20
2023-03-03T15:01:13.999Z,30.45
2023-03-03T15:03:52.533Z,29.65
2023-03-03T15:06:41.550Z,28.98
2023-03-03T15:09:35.759Z,27.17
2023-03-03T15:12:21.867Z,29.70
2023-03-03T15:15:11.390Z,31.58
2023-03-03T15:17:55.239Z,32.35
2023-03-03T15:20:40.208Z,27.88
2023-03-03T15:23:37.577Z,29.45
2023-03-03T15:26:15.404Z,26.38
2023-03-03T15:29:00.542Z,27.30
2023-03-03T15:31:45.082Z,34.60
2023-03-03T15:34:30.801Z,38.63
2023-03-03T15:37:28.058Z,38.15
2023-03-03T15:40:15.497Z,38.53
2023-03-03T15:42:51.296Z,35.95
2023-03-03T15:45:31.549Z,42.53
2023-03-03T15:48:34.305Z,47.42
2023-03-03T15:51:18.964Z,34.85
2023-03-03T15:54:18.633Z,38.40
2023-03-03T15:56:58.584Z,51.05
2023-03-03T15:59:57.444Z,42.30
2023-03-03T16:02:45.829Z,48.17
2023-03-03T16:05:24.096Z,37.78
2023-03-03T16:08:04.785Z,47.97
2023-03-03T16:10:48.396Z,41.15
2023-03-03T16:13:32.110Z,33.63
2023-03-03T16:16:19.557Z,47.38
2023-03-03T16:19:03.371Z,47.58
2023-03-03T16:22:02.736Z,41.22
2023-03-03T16:24:47.158Z,57.70
2023-03-03T16:27:25.918Z,46.78
2023-03-03T16:30:15.431Z,54.47
2023-03-03T16:32:53.142Z,57.38
2023-03-03T16:35:30.853Z,86.05
2023-03-03T16:38:07.894Z,69.80
2023-03-03T16:40:46.670Z,79.18
2023-03-03T16:43:27.574Z,87.55
2023-03-03T16:46:09.885Z,89.60
2023-03-03T16:48:50.391Z,86.32
2023-03-03T16:51:33.337Z,71.68
2023-03-03T16:54:12.804Z,69.07
2023-03-03T16:56:54.568Z,66.15
2023-03-03T16:59:51.290Z,77.20
2023-03-03T17:02:59.898Z,190.75
2023-03-03T17:05:45.460Z,80.90
2023-03-03T17:08:36.687Z,73.55
2023-03-03T17:11:17.072Z,67.35
2023-03-03T17:14:25.988Z,102.95
2023-03-03T17:17:01.443Z,68.82
2023-03-03T17:19:52.506Z,71.70
2023-03-03T17:22:36.523Z,98.45
2023-03-03T17:25:20.609Z,76.45
2023-03-03T17:28:16.944Z,63.90
2023-03-03T17:30:58.725Z,80.05
2023-03-03T17:33:43.714Z,61.13
2023-03-03T17:36:33.956Z,67.13
2023-03-03T17:39:37.123Z,61.75
2023-03-03T17:42:20.909Z,89.70
2023-03-03T17:45:03.672Z,84.53
2023-03-03T17:47:52.331Z,88.97
2023-03-03T17:50:38.343Z,87.25
2023-03-03T17:53:35.642Z,88.07
2023-03-03T17:56:20.320Z,81.65
2023-03-03T17:59:50.845Z,68.05
2023-03-03T18:03:02.455Z,73.00
2023-03-03T18:06:02.363Z,86.72
2023-03-03T18:08:50.822Z,77.07
2023-03-03T18:11:35.438Z,67.72
2023-03-03T18:14:37.411Z,92.25
2023-03-03T18:17:34.112Z,84.75
2023-03-03T18:20:29.502Z,80.35
2023-03-03T18:23:24.938Z,65.18
2023-03-03T18:26:01.070Z,84.20
2023-03-03T18:28:46.393Z,74.85
2023-03-03T18:31:26.125Z,86.45
2023-03-03T18:34:08.258Z,110.93
2023-03-03T18:36:54.770Z,83.53
2023-03-03T18:39:49.876Z,90.72
2023-03-03T18:42:41.189Z,89.18
2023-03-03T18:45:49.716Z,92.60
2023-03-03T18:48:51.004Z,112.78
2023-03-03T18:51:52.896Z,89.53
2023-03-03T18:54:31.314Z,105.40
2023-03-03T18:57:19.660Z,110.05
2023-03-03T19:00:09.669Z,109.13
2023-03-03T19:02:52.348Z,109.70
2023-03-03T19:05:28.795Z,122.03
2023-03-03T19:08:05.673Z,111.07
2023-03-03T19:10:58.601Z,117.40
2023-03-03T19:13:41.667Z,102.95
2023-03-03T19:16:37.943Z,104.20
2023-03-03T19:19:13.994Z,229.52
2023-03-03T19:21:51.616Z,175.18
2023-03-03T19:24:35.430Z,267.23
2023-03-03T19:27:31.884Z,153.38
2023-03-03T19:30:22.987Z,224.20
2023-03-03T19:33:22.689Z,123.38
2023-03-03T19:36:19.444Z,107.57
2023-03-03T19:39:09.875Z,199.27
2023-03-03T19:42:00.881Z,155.80
2023-03-03T19:45:00.051Z,152.35
2023-03-03T19:47:40.493Z,172.45
2023-03-03T19:50:32.480Z,290.15
2023-03-03T19:53:16.480Z,215.18
2023-03-03T19:56:02.811Z,171.60
2023-03-03T19:58:47.414Z,106.70
2023-03-03T20:01:26.551Z,131.88
2023-03-03T20:04:27.304Z,132.48
2023-03-03T20:07:11.399Z,161.05
2023-03-03T20:09:53.139Z,211.27
2023-03-03T20:12:37.909Z,171.20
2023-03-03T20:15:15.937Z,158.23
2023-03-03T20:18:24.934Z,120.47
2023-03-03T20:21:09.272Z,291.88
2023-03-03T20:23:58.107Z,203.63
2023-03-03T20:26:36.323Z,156.13
2023-03-03T20:29:45.161Z,166.32
2023-03-03T20:32:29.463Z,151.48
2023-03-03T20:35:14.881Z,167.80
2023-03-03T20:37:57.210Z,150.70
2023-03-03T20:40:39.066Z,151.88
2023-03-03T20:43:25.760Z,138.82
2023-03-03T20:46:12.089Z,112.65
2023-03-03T20:49:05.560Z,117.05
2023-03-03T20:51:44.687Z,128.30
2023-03-03T20:54:27.854Z,134.45
2023-03-03T20:57:12.316Z,130.18
2023-03-03T20:59:53.078Z,107.55
2023-03-03T21:02:32.445Z,95.95
2023-03-03T21:05:13.822Z,118.75
2023-03-03T21:07:56.008Z,116.32
2023-03-03T21:10:31.497Z,101.65
2023-03-03T21:13:30.001Z,104.82
2023-03-03T21:16:07.519Z,107.43
2023-03-03T21:18:41.165Z,116.82
2023-03-03T21:21:14.696Z,100.20
2023-03-03T21:23:48.178Z,96.80
2023-03-03T21:26:51.263Z,97.05
2023-03-03T21:29:27.999Z,104.13
2023-03-03T21:32:02.936Z,114.95
2023-03-03T21:34:38.330Z,98.78
2023-03-03T21:37:13.966Z,111.32
2023-03-03T21:39:47.449Z,99.78
2023-03-03T21:42:41.361Z,98.72
2023-03-03T21:45:20.396Z,103.57
2023-03-03T21:47:54.908Z,93.55
2023-03-03T21:50:31.250Z,97.03
2023-03-03T21:53:07.826Z,105.78
2023-03-03T21:55:41.297Z,108.82
2023-03-03T21:58:15.131Z,92.75
2023-03-03T22:00:50.108Z,90.18
2023-03-03T22:03:25.996Z,104.93
2023-03-03T22:05:59.505Z,96.47
2023-03-03T22:08:32.985Z,96.93
2023-03-03T22:11:06.697Z,90.07
2023-03-03T22:13:41.293Z,96.65
2023-03-03T22:16:17.205Z,102.85
2023-03-03T22:18:50.698Z,106.05
2023-03-03T22:21:24.517Z,86.55
2023-03-03T22:23:58.027Z,90.88
2023-03-03T22:26:31.557Z,92.68
2023-03-03T22:29:05.995Z,107.32
2023-03-03T22:31:41.198Z,124.28
2023-03-03T22:34:14.763Z,126.20
2023-03-03T22:36:48.255Z,148.40
2023-03-03T22:39:21.797Z,122.05
2023-03-03T22:41:55.228Z,129.20
2023-03-03T22:44:28.661Z,140.15
2023-03-03T22:47:03.491Z,147.52
2023-03-03T22:49:37.183Z,129.85
2023-03-03T22:52:10.641Z,123.28
2023-03-03T22:54:44.076Z,141.52
2023-03-03T22:57:17.764Z,137.75
2023-03-03T22:59:51.202Z,129.23
2023-03-03T23:02:26.080Z,123.25
2023-03-03T23:05:01.726Z,106.28
2023-03-03T23:07:36.251Z,125.65
2023-03-03T23:10:11.164Z,112.55
2023-03-03T23:12:44.632Z,101.25
2023-03-03T23:15:18.131Z,112.93
2023-03-03T23:17:53.004Z,107.53
2023-03-03T23:20:29.431Z,102.70
2023-03-03T23:23:02.919Z,110.43
2023-03-03T23:25:36.645Z,113.25
2023-03-03T23:28:10.128Z,108.55
2023-03-03T23:30:44.095Z,100.93
2023-03-03T23:33:19.361Z,113.38
2023-03-03T23:35:52.965Z,113.70
2023-03-03T23:38:26.496Z,100.68
2023-03-03T23:40:59.965Z,105.45
2023-03-03T23:43:33.637Z,105.72
2023-03-03T23:46:07.082Z,90.97
2023-03-03T23:48:41.933Z,99.68
2023-03-03T23:51:15.541Z,100.20
2023-03-03T23:53:49.001Z,95.63
2023-03-03T23:56:22.477Z,92.85
2023-03-03T23:58:56.004Z,110.28
